Time;durP1;ratioP1;P1;durP2;ratioP2;P2;SDS_P1;SDS_P2;PMS_P1;PMS_P2;Temp;Humidity;BMP_temperature;BMP_pressure;BME280_temperature;BME280_humidity;BME280_pressure;Samples;Min_cycle;Max_cycle;Signal;HPM_P1;HPM_P2
2023/01/22 00:06:42;;;;;;;0.50;0.20;;;-2.50;87.30;;;;;;20912344;28;20478;-58
2023/01/22 00:16:44;;;;;;;0.55;0.20;;;-2.50;88.10;;;;;;20912914;28;20024;-58
2023/01/22 00:26:45;;;;;;;0.52;0.20;;;-2.50;88.90;;;;;;20911629;28;20041;-56
2023/01/22 00:36:47;;;;;;;0.65;0.20;;;-2.60;89.80;;;;;;20893757;28;20048;-59
2023/01/22 00:46:51;;;;;;;0.40;0.20;;;-2.50;88.20;;;;;;20910171;28;20040;-57
2023/01/22 00:56:53;;;;;;;1.15;0.30;;;-2.60;88.20;;;;;;20891509;28;20041;-58
2023/01/22 01:06:54;;;;;;;0.50;0.25;;;-2.60;89.00;;;;;;20908426;28;20032;-57
2023/01/22 01:16:56;;;;;;;0.40;0.20;;;-2.40;90.00;;;;;;20909155;28;20037;-57
2023/01/22 01:26:58;;;;;;;0.32;0.15;;;-2.50;88.90;;;;;;20889477;28;20067;-58
2023/01/22 01:36:59;;;;;;;0.77;0.22;;;-2.70;90.60;;;;;;20873758;28;20040;-57
2023/01/22 01:47:07;;;;;;;1.13;0.30;;;-2.80;90.20;;;;;;20904636;28;20419;-57
2023/01/22 01:57:13;;;;;;;0.50;0.20;;;-2.60;90.10;;;;;;20904807;28;20095;-57
2023/01/22 02:07:15;;;;;;;0.25;0.10;;;-2.50;89.40;;;;;;20886537;28;20462;-58
2023/01/22 02:17:21;;;;;;;0.10;0.10;;;-2.40;88.70;;;;;;20902705;28;20364;-57
2023/01/22 02:27:25;;;;;;;0.60;0.20;;;-2.40;88.40;;;;;;20882249;28;20028;-57
2023/01/22 02:37:28;;;;;;;0.80;0.30;;;-2.30;88.50;;;;;;20884424;28;20044;-58
2023/01/22 02:47:33;;;;;;;0.65;0.15;;;-2.60;90.10;;;;;;20883524;28;20316;-58
2023/01/22 02:57:34;;;;;;;0.98;0.32;;;-2.90;91.10;;;;;;20900914;28;20067;-57
2023/01/22 03:07:43;;;;;;;0.43;0.10;;;-3.10;91.70;;;;;;20882691;28;20029;-56
2023/01/22 03:28:15;;;;;;;1.07;0.20;;;-2.70;90.80;;;;;;20882199;28;20355;-58
2023/01/22 03:38:20;;;;;;;0.55;0.17;;;-2.70;91.00;;;;;;20865230;28;20060;-58
2023/01/22 03:48:22;;;;;;;0.13;0.10;;;-2.60;91.10;;;;;;20881250;28;20542;-58
2023/01/22 03:58:24;;;;;;;0.85;0.20;;;-2.80;90.90;;;;;;20897146;28;20045;-58
2023/01/22 04:08:29;;;;;;;0.40;0.20;;;-3.00;91.10;;;;;;20886818;28;20032;-58
2023/01/22 04:18:31;;;;;;;0.40;0.13;;;-2.90;90.70;;;;;;20894847;28;20482;-58
2023/01/22 04:28:54;;;;;;;0.20;0.10;;;-2.90;91.10;;;;;;20894453;28;20032;-58
2023/01/22 04:38:57;;;;;;;0.40;0.20;;;-2.80;91.00;;;;;;20893080;28;20082;-58
2023/01/22 04:48:59;;;;;;;0.40;0.20;;;-2.70;90.50;;;;;;20892529;28;20036;-58
2023/01/22 04:59:01;;;;;;;0.80;0.25;;;-2.70;91.10;;;;;;20891793;28;20055;-57
2023/01/22 05:09:04;;;;;;;0.40;0.20;;;-2.60;90.80;;;;;;20891511;28;20048;-58
2023/01/22 05:19:17;;;;;;;1.30;0.15;;;-2.60;91.10;;;;;;20887258;28;20112;-57
2023/01/22 05:29:24;;;;;;;0.52;0.20;;;-2.60;90.60;;;;;;20907595;28;20029;-58
2023/01/22 05:39:46;;;;;;;0.73;0.20;;;-2.70;91.00;;;;;;20893606;28;20045;-58
2023/01/22 05:49:49;;;;;;;0.47;0.20;;;-2.80;91.70;;;;;;20887546;28;20402;-58
2023/01/22 05:59:51;;;;;;;0.20;0.10;;;-2.80;91.40;;;;;;20886300;28;20426;-58
2023/01/22 06:09:53;;;;;;;0.70;0.20;;;-2.70;91.60;;;;;;20886103;28;20040;-58
2023/01/22 06:19:55;;;;;;;0.30;0.20;;;-2.60;92.00;;;;;;20885101;28;20424;-57
2023/01/22 06:29:57;;;;;;;0.20;0.15;;;-2.50;91.80;;;;;;20884206;28;20029;-58
2023/01/22 06:39:59;;;;;;;0.43;0.20;;;-2.40;91.30;;;;;;20884523;28;20063;-57
2023/01/22 06:50:16;;;;;;;0.57;0.20;;;-2.50;91.40;;;;;;20883469;28;20098;-56
2023/01/22 07:00:18;;;;;;;0.28;0.10;;;-2.50;92.00;;;;;;20900799;28;20803;-57
2023/01/22 07:10:20;;;;;;;0.68;0.30;;;-2.60;93.00;;;;;;20900756;28;20033;-58
2023/01/22 07:20:23;;;;;;;1.38;0.20;;;-2.60;94.00;;;;;;20899589;28;20382;-58
2023/01/22 07:30:24;;;;;;;1.23;0.38;;;-2.60;94.90;;;;;;20899602;28;20029;-59
2023/01/22 07:40:26;;;;;;;1.80;0.40;;;-2.60;94.40;;;;;;20901394;28;20036;-57
2023/01/22 07:50:30;;;;;;;0.50;0.17;;;-2.50;93.40;;;;;;20897104;28;20025;-58
2023/01/22 08:00:34;;;;;;;0.57;0.30;;;-2.10;92.60;;;;;;20913966;28;20048;-57
2023/01/22 08:10:36;;;;;;;0.82;0.20;;;-1.80;91.50;;;;;;20896394;28;20033;-58
2023/01/22 08:20:38;;;;;;;0.65;0.13;;;-1.60;90.30;;;;;;20912616;28;20029;-58
2023/01/22 08:30:43;;;;;;;0.20;0.10;;;-1.60;90.50;;;;;;20911689;28;20025;-58
2023/01/22 08:40:49;;;;;;;0.38;0.20;;;-1.50;91.20;;;;;;20911278;28;20098;-58
2023/01/22 08:50:51;;;;;;;1.65;0.10;;;-1.00;90.70;;;;;;20906578;28;20033;-56
2023/01/22 09:00:54;;;;;;;0.70;0.17;;;-1.10;90.30;;;;;;20909395;28;20494;-58
2023/01/22 09:10:55;;;;;;;0.25;0.20;;;-1.10;91.10;;;;;;20907480;28;20037;-58
2023/01/22 09:20:58;;;;;;;0.73;0.40;;;-0.90;90.30;;;;;;20907260;28;20029;-58
2023/01/22 09:31:00;;;;;;;0.30;0.10;;;-0.70;89.10;;;;;;20905507;28;20444;-58
2023/01/22 09:41:18;;;;;;;2.88;0.10;;;-0.20;88.80;;;;;;20905679;28;20028;-58
2023/01/22 09:51:21;;;;;;;1.00;0.30;;;1.10;85.90;;;;;;20904618;28;20428;-58
2023/01/22 10:01:23;;;;;;;0.30;0.13;;;1.20;85.60;;;;;;20900366;28;20049;-59
2023/01/22 10:11:25;;;;;;;0.47;0.15;;;1.00;86.50;;;;;;20884883;28;20025;-59
2023/01/22 10:21:32;;;;;;;2.33;0.52;;;0.50;85.60;;;;;;20884954;28;20161;-57
2023/01/22 10:31:44;;;;;;;0.55;0.20;;;1.10;85.80;;;;;;20902534;28;20025;-57
2023/01/22 10:41:47;;;;;;;1.05;0.40;;;2.40;82.90;;;;;;20899501;28;20033;-57
2023/01/22 10:51:56;;;;;;;0.75;0.30;;;3.20;80.10;;;;;;20900914;28;20512;-58
2023/01/22 11:02:10;;;;;;;0.30;0.20;;;2.50;81.20;;;;;;20898257;28;20453;-58
2023/01/22 11:12:35;;;;;;;0.55;0.30;;;2.60;82.50;;;;;;20899098;28;20084;-58
2023/01/22 11:22:42;;;;;;;0.55;0.20;;;3.00;83.40;;;;;;20895371;28;20363;-58
2023/01/22 11:33:22;;;;;;;0.35;0.20;;;3.10;81.90;;;;;;20915294;28;20037;-57
2023/01/22 11:43:41;;;;;;;0.50;0.20;;;3.40;79.30;;;;;;20654483;28;20043;-58
2023/01/22 11:54:03;;;;;;;0.90;0.20;;;3.10;78.90;;;;;;20654584;28;20403;-57
2023/01/22 12:04:32;;;;;;;0.40;0.20;;;3.00;81.80;;;;;;20656757;28;20574;-58
2023/01/22 12:14:51;;;;;;;0.55;0.20;;;3.30;81.70;;;;;;20807620;28;20110;-58
2023/01/22 12:25:26;;;;;;;0.82;0.22;;;3.50;80.70;;;;;;20904814;28;20074;-57
2023/01/22 12:35:30;;;;;;;0.30;0.20;;;3.00;81.90;;;;;;20907008;28;20021;-58
2023/01/22 12:46:01;;;;;;;0.50;0.20;;;3.10;79.80;;;;;;20909932;28;20032;-59
2023/01/22 12:56:08;;;;;;;0.43;0.20;;;1.90;83.70;;;;;;20907729;28;20045;-59
2023/01/22 13:06:40;;;;;;;0.90;0.22;;;2.00;83.30;;;;;;20906525;28;20021;-59
2023/01/22 13:16:58;;;;;;;0.50;0.22;;;1.70;83.50;;;;;;20892629;28;20072;-58
2023/01/22 13:27:01;;;;;;;0.35;0.10;;;1.60;85.10;;;;;;20902078;28;20037;-59
2023/01/22 13:37:03;;;;;;;0.50;0.20;;;1.80;84.60;;;;;;20901673;28;20024;-59
2023/01/22 13:47:05;;;;;;;0.88;0.40;;;2.00;84.70;;;;;;20894281;28;20032;-58
2023/01/22 13:57:10;;;;;;;0.47;0.40;;;1.60;85.70;;;;;;20895393;28;20121;-59
2023/01/22 14:07:26;;;;;;;0.63;0.30;;;1.40;87.70;;;;;;20901080;28;20363;-59
2023/01/22 14:17:32;;;;;;;0.90;0.47;;;1.40;90.30;;;;;;20881008;28;20025;-57
2023/01/22 14:27:48;;;;;;;0.77;0.30;;;1.70;86.00;;;;;;20901418;28;20033;-58
2023/01/22 14:37:51;;;;;;;1.00;0.57;;;1.50;87.20;;;;;;20901049;28;20037;-58
2023/01/22 14:47:53;;;;;;;1.35;0.40;;;0.80;89.30;;;;;;20900343;28;20029;-59
2023/01/22 14:57:56;;;;;;;1.00;0.30;;;0.70;90.50;;;;;;20898376;28;20063;-58
2023/01/22 15:07:58;;;;;;;0.95;0.40;;;0.70;91.00;;;;;;20897146;28;20091;-58
2023/01/22 15:17:59;;;;;;;0.90;0.50;;;0.60;90.20;;;;;;20881142;28;20047;-58
2023/01/22 15:28:01;;;;;;;2.30;1.40;;;0.50;91.40;;;;;;20900102;28;20091;-57
2023/01/22 15:38:04;;;;;;;2.85;1.65;;;0.30;96.40;;;;;;20898958;28;20029;-58
2023/01/22 15:48:06;;;;;;;1.23;0.65;;;0.00;96.80;;;;;;20895710;28;20032;-58
2023/01/22 15:58:08;;;;;;;4.22;2.53;;;-0.10;95.10;;;;;;20898374;28;20103;-58
2023/01/22 16:08:10;;;;;;;4.50;2.50;;;-0.40;99.90;;;;;;20905574;28;20033;-58
2023/01/22 16:18:12;;;;;;;4.07;2.10;;;-0.60;99.90;;;;;;20916317;28;20044;-59
2023/01/22 16:28:14;;;;;;;4.60;2.20;;;-1.00;99.90;;;;;;20908815;28;20052;-58
2023/01/22 16:38:16;;;;;;;1.75;0.70;;;-1.20;99.90;;;;;;20909104;28;20040;-59
2023/01/22 16:48:17;;;;;;;1.17;0.50;;;-1.30;99.90;;;;;;20892820;28;20040;-58
2023/01/22 16:58:22;;;;;;;1.25;0.40;;;-1.00;96.70;;;;;;20907941;28;20556;-56
2023/01/22 17:08:25;;;;;;;0.90;0.30;;;-0.70;95.50;;;;;;20909439;28;20398;-58
2023/01/22 17:18:27;;;;;;;1.60;0.60;;;-0.70;95.20;;;;;;20907809;28;20056;-55
2023/01/22 17:28:28;;;;;;;1.20;0.50;;;-0.90;94.00;;;;;;20904902;28;20079;-57
2023/01/22 17:38:34;;;;;;;1.02;0.47;;;-1.00;93.90;;;;;;20905506;28;20036;-58
2023/01/22 17:48:37;;;;;;;1.52;0.60;;;-1.00;93.50;;;;;;20906701;28;20474;-58
2023/01/22 17:58:45;;;;;;;1.40;0.60;;;-1.20;93.10;;;;;;20904633;28;20567;-58
2023/01/22 18:08:47;;;;;;;4.35;2.33;;;-1.30;95.00;;;;;;20904905;28;20064;-57
2023/01/22 18:18:51;;;;;;;4.03;2.15;;;-1.50;99.90;;;;;;20903827;28;20028;-57
2023/01/22 18:28:55;;;;;;;1.35;0.50;;;-1.60;99.90;;;;;;20868286;28;20032;-57
2023/01/22 18:39:04;;;;;;;1.42;0.68;;;-1.30;95.50;;;;;;20902036;28;20037;-56
2023/01/22 18:49:11;;;;;;;1.30;0.57;;;-0.90;94.00;;;;;;20903017;28;20087;-56
2023/01/22 18:59:13;;;;;;;0.95;0.50;;;-1.00;94.70;;;;;;20899404;28;20403;-57
2023/01/22 19:09:18;;;;;;;2.47;0.77;;;-0.90;93.80;;;;;;20901641;28;20025;-58
2023/01/22 19:19:21;;;;;;;2.85;0.60;;;-0.90;94.60;;;;;;20900038;28;20370;-58
2023/01/22 19:29:24;;;;;;;1.20;0.68;;;-0.80;94.20;;;;;;20893490;28;20075;-58
2023/01/22 19:39:26;;;;;;;0.85;0.43;;;-0.90;94.80;;;;;;20908861;28;20036;-55
2023/01/22 19:49:28;;;;;;;3.03;1.50;;;-1.00;94.50;;;;;;20916383;28;20025;-58
2023/01/22 19:59:30;;;;;;;2.08;0.68;;;-1.10;97.60;;;;;;20910045;28;20037;-59
2023/01/22 20:09:34;;;;;;;1.40;0.52;;;-1.40;96.50;;;;;;20913660;28;20029;-59
2023/01/22 20:19:38;;;;;;;1.25;0.50;;;-1.20;96.10;;;;;;20896725;28;20032;-57
2023/01/22 20:29:40;;;;;;;0.70;0.30;;;-1.20;95.70;;;;;;20913347;28;20032;-57
2023/01/22 20:39:42;;;;;;;1.60;0.70;;;-1.40;95.10;;;;;;20910589;28;20093;-57
2023/01/22 20:49:44;;;;;;;1.60;0.80;;;-1.60;95.20;;;;;;20910231;28;20037;-58
2023/01/22 20:59:46;;;;;;;1.20;0.50;;;-1.70;95.20;;;;;;20909863;28;20072;-58
2023/01/22 21:09:48;;;;;;;1.17;0.60;;;-1.70;95.60;;;;;;20909408;28;20055;-59
2023/01/22 21:19:51;;;;;;;1.98;0.98;;;-1.80;95.30;;;;;;20909792;28;20029;-57
2023/01/22 21:29:54;;;;;;;3.17;0.80;;;-1.90;95.80;;;;;;20891473;28;20090;-57
2023/01/22 21:39:55;;;;;;;0.90;0.50;;;-1.90;96.00;;;;;;20905424;28;20021;-55
2023/01/22 21:49:57;;;;;;;1.73;0.70;;;-1.70;95.40;;;;;;20906332;28;20036;-57
2023/01/22 21:59:59;;;;;;;1.98;0.77;;;-1.70;95.50;;;;;;20905120;28;20099;-56
2023/01/22 22:10:00;;;;;;;1.95;0.75;;;-1.50;95.40;;;;;;20898148;28;20095;-57
2023/01/22 22:20:04;;;;;;;2.35;0.63;;;-1.30;95.30;;;;;;20903243;28;20112;-55
2023/01/22 22:30:07;;;;;;;1.13;0.50;;;-1.00;94.40;;;;;;20904240;28;20029;-55
2023/01/22 22:40:12;;;;;;;1.40;0.60;;;-0.90;94.60;;;;;;20902594;28;20036;-54
2023/01/22 22:50:14;;;;;;;1.40;0.50;;;-0.90;95.00;;;;;;20901799;28;20429;-56
2023/01/22 23:00:16;;;;;;;0.70;0.50;;;-0.90;95.50;;;;;;20901143;28;20036;-56
2023/01/22 23:10:29;;;;;;;2.05;0.60;;;-0.80;95.20;;;;;;20904444;28;20099;-57
2023/01/22 23:20:30;;;;;;;1.25;0.63;;;-0.80;95.30;;;;;;20909944;28;20043;-57
2023/01/22 23:30:34;;;;;;;0.90;0.55;;;-0.90;95.20;;;;;;20910095;28;20351;-58
2023/01/22 23:40:35;;;;;;;0.95;0.50;;;-0.80;95.50;;;;;;20925941;28;20367;-57
2023/01/22 23:50:37;;;;;;;1.33;0.60;;;-0.80;95.60;;;;;;20923332;28;20083;-57
